sensor_id;sensor_type;location;lat;lon;timestamp;temperature;humidity
16392;DHT22;8305;-33.882;151.134;2022-10-15T00:01:56;22.40;99.90
16392;DHT22;8305;-33.882;151.134;2022-10-15T00:04:27;22.30;99.90
16392;DHT22;8305;-33.882;151.134;2022-10-15T00:07:01;22.50;99.90
16392;DHT22;8305;-33.882;151.134;2022-10-15T00:09:32;22.60;99.90
16392;DHT22;8305;-33.882;151.134;2022-10-15T00:12:03;22.60;99.90
16392;DHT22;8305;-33.882;151.134;2022-10-15T00:14:33;22.70;99.90
16392;DHT22;8305;-33.882;151.134;2022-10-15T00:17:04;22.80;99.90
16392;DHT22;8305;-33.882;151.134;2022-10-15T00:19:35;22.70;99.90
16392;DHT22;8305;-33.882;151.134;2022-10-15T00:22:08;22.70;99.90
16392;DHT22;8305;-33.882;151.134;2022-10-15T00:24:39;22.80;99.90
16392;DHT22;8305;-33.882;151.134;2022-10-15T00:27:10;22.70;99.90
16392;DHT22;8305;-33.882;151.134;2022-10-15T00:29:40;22.80;99.90
16392;DHT22;8305;-33.882;151.134;2022-10-15T00:32:11;22.80;99.90
16392;DHT22;8305;-33.882;151.134;2022-10-15T00:34:42;22.90;99.90
16392;DHT22;8305;-33.882;151.134;2022-10-15T00:37:15;22.90;99.90
16392;DHT22;8305;-33.882;151.134;2022-10-15T00:39:46;22.80;99.90
16392;DHT22;8305;-33.882;151.134;2022-10-15T00:42:17;22.70;99.90
16392;DHT22;8305;-33.882;151.134;2022-10-15T00:44:53;22.70;99.90
16392;DHT22;8305;-33.882;151.134;2022-10-15T00:47:29;22.80;99.90
16392;DHT22;8305;-33.882;151.134;2022-10-15T00:50:06;22.70;99.90
16392;DHT22;8305;-33.882;151.134;2022-10-15T00:52:46;22.80;99.90
16392;DHT22;8305;-33.882;151.134;2022-10-15T00:55:23;22.90;99.90
16392;DHT22;8305;-33.882;151.134;2022-10-15T00:57:57;22.90;99.90
16392;DHT22;8305;-33.882;151.134;2022-10-15T01:00:29;22.80;99.90
16392;DHT22;8305;-33.882;151.134;2022-10-15T01:03:00;22.80;99.90
16392;DHT22;8305;-33.882;151.134;2022-10-15T01:05:31;23.00;99.90
16392;DHT22;8305;-33.882;151.134;2022-10-15T01:08:04;23.10;99.90
16392;DHT22;8305;-33.882;151.134;2022-10-15T01:10:39;23.00;99.90
16392;DHT22;8305;-33.882;151.134;2022-10-15T01:13:18;22.90;99.90
16392;DHT22;8305;-33.882;151.134;2022-10-15T01:15:56;23.10;99.90
16392;DHT22;8305;-33.882;151.134;2022-10-15T01:18:32;23.10;99.90
16392;DHT22;8305;-33.882;151.134;2022-10-15T01:21:11;23.10;99.90
16392;DHT22;8305;-33.882;151.134;2022-10-15T01:30:26;23.50;99.90
16392;DHT22;8305;-33.882;151.134;2022-10-15T01:33:23;23.70;99.90
16392;DHT22;8305;-33.882;151.134;2022-10-15T01:35:57;23.50;99.90
16392;DHT22;8305;-33.882;151.134;2022-10-15T01:38:44;23.70;99.90
16392;DHT22;8305;-33.882;151.134;2022-10-15T01:41:19;23.80;99.90
16392;DHT22;8305;-33.882;151.134;2022-10-15T01:43:57;23.80;99.90
16392;DHT22;8305;-33.882;151.134;2022-10-15T01:46:34;24.00;99.90
16392;DHT22;8305;-33.882;151.134;2022-10-15T01:49:07;24.00;99.90
16392;DHT22;8305;-33.882;151.134;2022-10-15T01:51:39;24.00;99.90
16392;DHT22;8305;-33.882;151.134;2022-10-15T01:54:46;24.00;99.90
16392;DHT22;8305;-33.882;151.134;2022-10-15T01:57:19;23.80;99.90
16392;DHT22;8305;-33.882;151.134;2022-10-15T01:59:52;23.70;99.90
16392;DHT22;8305;-33.882;151.134;2022-10-15T02:02:25;23.80;99.90
16392;DHT22;8305;-33.882;151.134;2022-10-15T02:04:56;23.80;99.90
16392;DHT22;8305;-33.882;151.134;2022-10-15T02:07:34;23.80;99.90
16392;DHT22;8305;-33.882;151.134;2022-10-15T02:10:09;23.80;99.90
16392;DHT22;8305;-33.882;151.134;2022-10-15T02:12:51;23.80;99.90
16392;DHT22;8305;-33.882;151.134;2022-10-15T02:15:29;23.80;99.90
16392;DHT22;8305;-33.882;151.134;2022-10-15T02:18:10;23.60;99.90
16392;DHT22;8305;-33.882;151.134;2022-10-15T02:20:47;23.50;99.90
16392;DHT22;8305;-33.882;151.134;2022-10-15T02:23:22;23.20;99.90
16392;DHT22;8305;-33.882;151.134;2022-10-15T02:25:55;22.90;99.90
16392;DHT22;8305;-33.882;151.134;2022-10-15T02:28:26;22.80;99.90
16392;DHT22;8305;-33.882;151.134;2022-10-15T02:31:00;22.90;99.90
16392;DHT22;8305;-33.882;151.134;2022-10-15T02:33:34;23.10;99.90
16392;DHT22;8305;-33.882;151.134;2022-10-15T02:36:05;23.20;99.90
16392;DHT22;8305;-33.882;151.134;2022-10-15T02:38:37;23.20;99.90
16392;DHT22;8305;-33.882;151.134;2022-10-15T02:41:10;23.20;99.90
16392;DHT22;8305;-33.882;151.134;2022-10-15T02:43:41;22.80;99.90
16392;DHT22;8305;-33.882;151.134;2022-10-15T02:46:12;22.70;99.90
16392;DHT22;8305;-33.882;151.134;2022-10-15T02:48:46;22.60;99.90
16392;DHT22;8305;-33.882;151.134;2022-10-15T02:51:16;22.70;99.90
16392;DHT22;8305;-33.882;151.134;2022-10-15T02:53:47;22.80;99.90
16392;DHT22;8305;-33.882;151.134;2022-10-15T02:56:18;22.90;99.90
16392;DHT22;8305;-33.882;151.134;2022-10-15T02:58:49;22.70;99.90
16392;DHT22;8305;-33.882;151.134;2022-10-15T03:01:19;22.90;99.90
16392;DHT22;8305;-33.882;151.134;2022-10-15T03:03:52;22.80;99.90
16392;DHT22;8305;-33.882;151.134;2022-10-15T03:06:23;22.90;99.90
16392;DHT22;8305;-33.882;151.134;2022-10-15T03:08:54;22.80;99.90
16392;DHT22;8305;-33.882;151.134;2022-10-15T03:11:24;22.90;99.90
16392;DHT22;8305;-33.882;151.134;2022-10-15T03:13:55;22.90;99.90
16392;DHT22;8305;-33.882;151.134;2022-10-15T03:16:26;22.80;99.90
16392;DHT22;8305;-33.882;151.134;2022-10-15T03:18:59;22.70;99.90
16392;DHT22;8305;-33.882;151.134;2022-10-15T03:21:29;22.70;99.90
16392;DHT22;8305;-33.882;151.134;2022-10-15T03:24:00;22.80;99.90
16392;DHT22;8305;-33.882;151.134;2022-10-15T03:26:31;22.80;99.90
16392;DHT22;8305;-33.882;151.134;2022-10-15T03:29:02;22.90;99.90
16392;DHT22;8305;-33.882;151.134;2022-10-15T03:31:32;22.90;99.90
16392;DHT22;8305;-33.882;151.134;2022-10-15T03:34:05;22.80;99.90
16392;DHT22;8305;-33.882;151.134;2022-10-15T03:36:36;22.90;99.90
16392;DHT22;8305;-33.882;151.134;2022-10-15T03:39:07;22.80;99.90
16392;DHT22;8305;-33.882;151.134;2022-10-15T03:41:37;22.70;99.90
16392;DHT22;8305;-33.882;151.134;2022-10-15T03:44:09;22.60;99.90
16392;DHT22;8305;-33.882;151.134;2022-10-15T03:46:40;22.50;99.90
16392;DHT22;8305;-33.882;151.134;2022-10-15T03:49:12;22.50;99.90
16392;DHT22;8305;-33.882;151.134;2022-10-15T03:51:43;22.50;99.90
16392;DHT22;8305;-33.882;151.134;2022-10-15T03:54:14;22.50;99.90
16392;DHT22;8305;-33.882;151.134;2022-10-15T03:56:45;22.50;99.90
16392;DHT22;8305;-33.882;151.134;2022-10-15T03:59:15;22.40;99.90
16392;DHT22;8305;-33.882;151.134;2022-10-15T04:01:46;22.40;99.90
16392;DHT22;8305;-33.882;151.134;2022-10-15T04:04:19;22.20;99.90
16392;DHT22;8305;-33.882;151.134;2022-10-15T04:06:49;22.00;99.90
16392;DHT22;8305;-33.882;151.134;2022-10-15T04:09:20;22.20;99.90
16392;DHT22;8305;-33.882;151.134;2022-10-15T04:11:51;22.20;99.90
16392;DHT22;8305;-33.882;151.134;2022-10-15T04:14:22;22.20;99.90
16392;DHT22;8305;-33.882;151.134;2022-10-15T04:16:53;22.00;99.90
16392;DHT22;8305;-33.882;151.134;2022-10-15T04:19:27;22.00;99.90
16392;DHT22;8305;-33.882;151.134;2022-10-15T04:21:58;22.10;99.90
16392;DHT22;8305;-33.882;151.134;2022-10-15T04:24:29;22.10;99.90
16392;DHT22;8305;-33.882;151.134;2022-10-15T04:27:00;22.10;99.90
16392;DHT22;8305;-33.882;151.134;2022-10-15T04:29:30;22.10;99.90
16392;DHT22;8305;-33.882;151.134;2022-10-15T04:32:01;22.00;99.90
16392;DHT22;8305;-33.882;151.134;2022-10-15T04:34:34;22.00;99.90
16392;DHT22;8305;-33.882;151.134;2022-10-15T04:37:05;22.00;99.90
16392;DHT22;8305;-33.882;151.134;2022-10-15T04:39:36;22.00;99.90
16392;DHT22;8305;-33.882;151.134;2022-10-15T04:42:07;21.90;99.90
16392;DHT22;8305;-33.882;151.134;2022-10-15T04:44:38;21.90;99.90
16392;DHT22;8305;-33.882;151.134;2022-10-15T04:47:08;21.70;99.90
16392;DHT22;8305;-33.882;151.134;2022-10-15T04:49:41;21.70;99.90
16392;DHT22;8305;-33.882;151.134;2022-10-15T04:52:12;21.70;99.90
16392;DHT22;8305;-33.882;151.134;2022-10-15T04:54:43;21.70;99.90
16392;DHT22;8305;-33.882;151.134;2022-10-15T04:57:13;21.60;99.90
16392;DHT22;8305;-33.882;151.134;2022-10-15T04:59:44;21.70;99.90
16392;DHT22;8305;-33.882;151.134;2022-10-15T05:02:15;21.70;99.90
16392;DHT22;8305;-33.882;151.134;2022-10-15T05:04:48;21.80;99.90
16392;DHT22;8305;-33.882;151.134;2022-10-15T05:07:18;21.80;99.90
16392;DHT22;8305;-33.882;151.134;2022-10-15T05:09:49;21.70;99.90
16392;DHT22;8305;-33.882;151.134;2022-10-15T05:12:20;21.80;99.90
16392;DHT22;8305;-33.882;151.134;2022-10-15T05:14:51;21.70;99.90
16392;DHT22;8305;-33.882;151.134;2022-10-15T05:17:21;21.70;99.90
16392;DHT22;8305;-33.882;151.134;2022-10-15T05:19:54;21.70;99.90
16392;DHT22;8305;-33.882;151.134;2022-10-15T05:22:25;21.70;99.90
16392;DHT22;8305;-33.882;151.134;2022-10-15T05:24:55;21.60;99.90
16392;DHT22;8305;-33.882;151.134;2022-10-15T05:27:26;21.50;99.90
16392;DHT22;8305;-33.882;151.134;2022-10-15T05:29:57;21.30;99.90
16392;DHT22;8305;-33.882;151.134;2022-10-15T05:32:28;21.20;99.90
16392;DHT22;8305;-33.882;151.134;2022-10-15T05:35:00;21.20;99.90
16392;DHT22;8305;-33.882;151.134;2022-10-15T05:37:31;21.20;99.90
16392;DHT22;8305;-33.882;151.134;2022-10-15T05:40:02;21.10;99.90
16392;DHT22;8305;-33.882;151.134;2022-10-15T05:42:32;21.10;99.90
16392;DHT22;8305;-33.882;151.134;2022-10-15T05:45:04;21.10;99.90
16392;DHT22;8305;-33.882;151.134;2022-10-15T05:47:34;21.10;99.90
16392;DHT22;8305;-33.882;151.134;2022-10-15T05:50:07;21.10;99.90
16392;DHT22;8305;-33.882;151.134;2022-10-15T05:52:38;21.10;99.90
16392;DHT22;8305;-33.882;151.134;2022-10-15T05:55:11;21.00;99.90
16392;DHT22;8305;-33.882;151.134;2022-10-15T05:57:42;20.90;99.90
16392;DHT22;8305;-33.882;151.134;2022-10-15T06:00:13;20.90;99.90
16392;DHT22;8305;-33.882;151.134;2022-10-15T06:02:44;20.90;99.90
16392;DHT22;8305;-33.882;151.134;2022-10-15T06:05:18;20.80;99.90
16392;DHT22;8305;-33.882;151.134;2022-10-15T06:07:49;20.70;99.90
16392;DHT22;8305;-33.882;151.134;2022-10-15T06:10:20;20.60;99.90
16392;DHT22;8305;-33.882;151.134;2022-10-15T06:12:51;20.50;99.90
16392;DHT22;8305;-33.882;151.134;2022-10-15T06:15:21;20.50;99.90
16392;DHT22;8305;-33.882;151.134;2022-10-15T06:17:53;20.60;99.90
16392;DHT22;8305;-33.882;151.134;2022-10-15T06:20:26;20.50;99.90
16392;DHT22;8305;-33.882;151.134;2022-10-15T06:22:59;20.50;99.90
16392;DHT22;8305;-33.882;151.134;2022-10-15T06:25:30;20.50;99.90
16392;DHT22;8305;-33.882;151.134;2022-10-15T06:28:02;20.50;99.90
16392;DHT22;8305;-33.882;151.134;2022-10-15T06:30:32;20.50;99.90
16392;DHT22;8305;-33.882;151.134;2022-10-15T06:33:03;20.40;99.90
16392;DHT22;8305;-33.882;151.134;2022-10-15T06:35:36;20.30;99.90
16392;DHT22;8305;-33.882;151.134;2022-10-15T06:38:08;20.20;99.90
16392;DHT22;8305;-33.882;151.134;2022-10-15T06:40:39;20.20;99.90
16392;DHT22;8305;-33.882;151.134;2022-10-15T06:43:10;20.10;99.90
16392;DHT22;8305;-33.882;151.134;2022-10-15T06:45:41;20.00;99.90
16392;DHT22;8305;-33.882;151.134;2022-10-15T06:48:12;20.00;99.90
16392;DHT22;8305;-33.882;151.134;2022-10-15T06:50:45;20.00;99.90
16392;DHT22;8305;-33.882;151.134;2022-10-15T06:53:16;19.90;99.90
16392;DHT22;8305;-33.882;151.134;2022-10-15T06:55:46;19.90;99.90
16392;DHT22;8305;-33.882;151.134;2022-10-15T06:58:17;19.90;99.90
16392;DHT22;8305;-33.882;151.134;2022-10-15T07:00:48;19.80;99.90
16392;DHT22;8305;-33.882;151.134;2022-10-15T07:03:19;19.80;99.90
16392;DHT22;8305;-33.882;151.134;2022-10-15T07:05:51;19.70;99.90
16392;DHT22;8305;-33.882;151.134;2022-10-15T07:08:24;19.60;99.90
16392;DHT22;8305;-33.882;151.134;2022-10-15T07:10:55;19.60;99.90
16392;DHT22;8305;-33.882;151.134;2022-10-15T07:13:25;19.50;99.90
16392;DHT22;8305;-33.882;151.134;2022-10-15T07:15:56;19.50;99.90
16392;DHT22;8305;-33.882;151.134;2022-10-15T07:18:27;19.40;99.90
16392;DHT22;8305;-33.882;151.134;2022-10-15T07:21:00;19.40;99.90
16392;DHT22;8305;-33.882;151.134;2022-10-15T07:23:30;19.40;99.90
16392;DHT22;8305;-33.882;151.134;2022-10-15T07:26:01;19.40;99.90
16392;DHT22;8305;-33.882;151.134;2022-10-15T07:28:32;19.40;99.90
16392;DHT22;8305;-33.882;151.134;2022-10-15T07:31:04;19.30;99.90
16392;DHT22;8305;-33.882;151.134;2022-10-15T07:33:36;19.30;99.90
16392;DHT22;8305;-33.882;151.134;2022-10-15T07:36:09;19.20;99.90
16392;DHT22;8305;-33.882;151.134;2022-10-15T07:38:41;19.20;99.90
16392;DHT22;8305;-33.882;151.134;2022-10-15T07:41:13;19.20;99.90
16392;DHT22;8305;-33.882;151.134;2022-10-15T07:43:44;19.10;99.90
16392;DHT22;8305;-33.882;151.134;2022-10-15T07:46:14;19.00;99.90
16392;DHT22;8305;-33.882;151.134;2022-10-15T07:48:45;19.00;99.90
16392;DHT22;8305;-33.882;151.134;2022-10-15T07:51:18;19.00;99.90
16392;DHT22;8305;-33.882;151.134;2022-10-15T07:53:49;18.90;99.90
16392;DHT22;8305;-33.882;151.134;2022-10-15T07:56:19;18.90;99.90
16392;DHT22;8305;-33.882;151.134;2022-10-15T07:58:50;18.80;99.90
16392;DHT22;8305;-33.882;151.134;2022-10-15T08:01:21;18.80;99.90
16392;DHT22;8305;-33.882;151.134;2022-10-15T08:03:52;18.70;99.90
16392;DHT22;8305;-33.882;151.134;2022-10-15T08:06:25;18.70;99.90
16392;DHT22;8305;-33.882;151.134;2022-10-15T08:08:55;18.60;99.90
16392;DHT22;8305;-33.882;151.134;2022-10-15T08:11:26;18.60;99.90
16392;DHT22;8305;-33.882;151.134;2022-10-15T08:13:57;18.50;99.90
16392;DHT22;8305;-33.882;151.134;2022-10-15T08:16:30;18.50;99.90
16392;DHT22;8305;-33.882;151.134;2022-10-15T08:19:01;18.50;99.90
16392;DHT22;8305;-33.882;151.134;2022-10-15T08:21:33;18.50;99.90
16392;DHT22;8305;-33.882;151.134;2022-10-15T08:24:05;18.40;99.90
16392;DHT22;8305;-33.882;151.134;2022-10-15T08:26:36;18.40;99.90
16392;DHT22;8305;-33.882;151.134;2022-10-15T08:29:07;18.30;99.90
16392;DHT22;8305;-33.882;151.134;2022-10-15T08:31:39;18.30;99.90
16392;DHT22;8305;-33.882;151.134;2022-10-15T08:34:10;18.30;99.90
16392;DHT22;8305;-33.882;151.134;2022-10-15T08:36:42;18.30;99.90
16392;DHT22;8305;-33.882;151.134;2022-10-15T08:39:13;18.20;99.90
16392;DHT22;8305;-33.882;151.134;2022-10-15T08:41:46;18.20;99.90
16392;DHT22;8305;-33.882;151.134;2022-10-15T08:44:22;18.20;99.90
16392;DHT22;8305;-33.882;151.134;2022-10-15T08:47:00;18.10;99.90
16392;DHT22;8305;-33.882;151.134;2022-10-15T08:49:40;18.10;99.90
16392;DHT22;8305;-33.882;151.134;2022-10-15T08:52:19;18.10;99.90
16392;DHT22;8305;-33.882;151.134;2022-10-15T08:54:50;18.10;99.90
16392;DHT22;8305;-33.882;151.134;2022-10-15T08:57:33;18.10;99.90
16392;DHT22;8305;-33.882;151.134;2022-10-15T09:00:12;18.00;99.90
16392;DHT22;8305;-33.882;151.134;2022-10-15T09:02:51;18.00;99.90
16392;DHT22;8305;-33.882;151.134;2022-10-15T09:05:28;18.00;99.90
16392;DHT22;8305;-33.882;151.134;2022-10-15T09:08:07;18.00;99.90
16392;DHT22;8305;-33.882;151.134;2022-10-15T09:10:46;18.00;99.90
16392;DHT22;8305;-33.882;151.134;2022-10-15T09:13:22;18.00;99.90
16392;DHT22;8305;-33.882;151.134;2022-10-15T09:15:57;17.90;99.90
16392;DHT22;8305;-33.882;151.134;2022-10-15T09:18:33;17.90;99.90
16392;DHT22;8305;-33.882;151.134;2022-10-15T09:21:05;17.90;99.90
16392;DHT22;8305;-33.882;151.134;2022-10-15T09:23:40;17.90;99.90
16392;DHT22;8305;-33.882;151.134;2022-10-15T09:26:20;17.90;99.90
16392;DHT22;8305;-33.882;151.134;2022-10-15T09:28:57;17.80;99.90
16392;DHT22;8305;-33.882;151.134;2022-10-15T09:31:32;17.80;99.90
16392;DHT22;8305;-33.882;151.134;2022-10-15T09:34:06;17.80;99.90
16392;DHT22;8305;-33.882;151.134;2022-10-15T09:36:44;17.80;99.90
16392;DHT22;8305;-33.882;151.134;2022-10-15T09:39:33;17.70;99.90
16392;DHT22;8305;-33.882;151.134;2022-10-15T09:42:12;17.80;99.90
16392;DHT22;8305;-33.882;151.134;2022-10-15T09:44:46;17.70;99.90
16392;DHT22;8305;-33.882;151.134;2022-10-15T09:47:21;17.70;99.90
16392;DHT22;8305;-33.882;151.134;2022-10-15T09:49:52;17.70;99.90
16392;DHT22;8305;-33.882;151.134;2022-10-15T09:52:33;17.70;99.90
16392;DHT22;8305;-33.882;151.134;2022-10-15T09:55:17;17.70;99.90
16392;DHT22;8305;-33.882;151.134;2022-10-15T09:57:55;17.70;99.90
16392;DHT22;8305;-33.882;151.134;2022-10-15T10:00:54;17.70;99.90
16392;DHT22;8305;-33.882;151.134;2022-10-15T10:03:27;17.70;99.90
16392;DHT22;8305;-33.882;151.134;2022-10-15T10:06:03;17.70;99.90
16392;DHT22;8305;-33.882;151.134;2022-10-15T10:08:38;17.80;99.90
16392;DHT22;8305;-33.882;151.134;2022-10-15T10:11:11;17.80;99.90
16392;DHT22;8305;-33.882;151.134;2022-10-15T10:13:50;17.80;99.90
16392;DHT22;8305;-33.882;151.134;2022-10-15T10:16:21;17.80;99.90
16392;DHT22;8305;-33.882;151.134;2022-10-15T10:19:12;17.80;99.90
16392;DHT22;8305;-33.882;151.134;2022-10-15T10:21:43;17.80;99.90
16392;DHT22;8305;-33.882;151.134;2022-10-15T10:24:26;17.90;99.90
16392;DHT22;8305;-33.882;151.134;2022-10-15T10:27:01;17.90;99.90
16392;DHT22;8305;-33.882;151.134;2022-10-15T10:29:35;17.90;99.90
16392;DHT22;8305;-33.882;151.134;2022-10-15T10:32:16;17.80;99.90
16392;DHT22;8305;-33.882;151.134;2022-10-15T10:34:48;17.90;99.90
16392;DHT22;8305;-33.882;151.134;2022-10-15T10:37:20;17.80;99.90
16392;DHT22;8305;-33.882;151.134;2022-10-15T10:39:56;17.80;99.90
16392;DHT22;8305;-33.882;151.134;2022-10-15T10:42:32;17.80;99.90
16392;DHT22;8305;-33.882;151.134;2022-10-15T10:45:19;17.80;99.90
16392;DHT22;8305;-33.882;151.134;2022-10-15T10:47:50;17.80;99.90
16392;DHT22;8305;-33.882;151.134;2022-10-15T10:50:32;17.80;99.90
16392;DHT22;8305;-33.882;151.134;2022-10-15T10:53:23;17.80;99.90
16392;DHT22;8305;-33.882;151.134;2022-10-15T10:55:55;17.80;99.90
16392;DHT22;8305;-33.882;151.134;2022-10-15T10:58:30;17.70;99.90
16392;DHT22;8305;-33.882;151.134;2022-10-15T11:01:02;17.70;99.90
16392;DHT22;8305;-33.882;151.134;2022-10-15T11:03:36;17.80;99.90
16392;DHT22;8305;-33.882;151.134;2022-10-15T11:06:20;17.70;99.90
16392;DHT22;8305;-33.882;151.134;2022-10-15T11:09:02;17.80;99.90
16392;DHT22;8305;-33.882;151.134;2022-10-15T11:11:40;17.70;99.90
16392;DHT22;8305;-33.882;151.134;2022-10-15T11:14:23;17.80;99.90
16392;DHT22;8305;-33.882;151.134;2022-10-15T11:17:02;17.80;99.90
16392;DHT22;8305;-33.882;151.134;2022-10-15T11:19:40;17.80;99.90
16392;DHT22;8305;-33.882;151.134;2022-10-15T11:22:22;17.80;99.90
16392;DHT22;8305;-33.882;151.134;2022-10-15T11:24:58;17.80;99.90
16392;DHT22;8305;-33.882;151.134;2022-10-15T11:27:51;17.70;99.90
16392;DHT22;8305;-33.882;151.134;2022-10-15T11:30:37;17.80;99.90
16392;DHT22;8305;-33.882;151.134;2022-10-15T11:33:24;17.80;99.90
16392;DHT22;8305;-33.882;151.134;2022-10-15T11:36:09;17.80;99.90
16392;DHT22;8305;-33.882;151.134;2022-10-15T11:38:50;17.80;99.90
16392;DHT22;8305;-33.882;151.134;2022-10-15T11:41:34;17.80;99.90
16392;DHT22;8305;-33.882;151.134;2022-10-15T11:44:19;17.80;99.90
16392;DHT22;8305;-33.882;151.134;2022-10-15T11:47:02;17.80;99.90
16392;DHT22;8305;-33.882;151.134;2022-10-15T11:49:42;17.80;99.90
16392;DHT22;8305;-33.882;151.134;2022-10-15T11:52:31;17.80;99.90
16392;DHT22;8305;-33.882;151.134;2022-10-15T11:55:11;17.80;99.90
16392;DHT22;8305;-33.882;151.134;2022-10-15T11:57:44;17.80;99.90
16392;DHT22;8305;-33.882;151.134;2022-10-15T12:00:28;17.80;99.90
16392;DHT22;8305;-33.882;151.134;2022-10-15T12:03:04;17.80;99.90
16392;DHT22;8305;-33.882;151.134;2022-10-15T12:05:40;17.80;99.90
16392;DHT22;8305;-33.882;151.134;2022-10-15T12:08:13;17.70;99.90
16392;DHT22;8305;-33.882;151.134;2022-10-15T12:11:07;17.80;99.90
16392;DHT22;8305;-33.882;151.134;2022-10-15T12:13:44;17.70;99.90
16392;DHT22;8305;-33.882;151.134;2022-10-15T12:16:24;17.70;99.90
16392;DHT22;8305;-33.882;151.134;2022-10-15T12:19:03;17.80;99.90
16392;DHT22;8305;-33.882;151.134;2022-10-15T12:21:43;17.70;99.90
16392;DHT22;8305;-33.882;151.134;2022-10-15T12:27:25;17.70;99.90
16392;DHT22;8305;-33.882;151.134;2022-10-15T12:30:23;17.60;99.90
16392;DHT22;8305;-33.882;151.134;2022-10-15T12:32:55;17.70;99.90
16392;DHT22;8305;-33.882;151.134;2022-10-15T12:35:34;17.70;99.90
16392;DHT22;8305;-33.882;151.134;2022-10-15T12:38:29;17.70;99.90
16392;DHT22;8305;-33.882;151.134;2022-10-15T12:41:03;17.70;99.90
16392;DHT22;8305;-33.882;151.134;2022-10-15T12:43:35;17.70;99.90
16392;DHT22;8305;-33.882;151.134;2022-10-15T12:46:08;17.70;99.90
16392;DHT22;8305;-33.882;151.134;2022-10-15T12:48:41;17.60;99.90
16392;DHT22;8305;-33.882;151.134;2022-10-15T12:51:40;17.60;99.90
16392;DHT22;8305;-33.882;151.134;2022-10-15T12:54:33;17.70;99.90
16392;DHT22;8305;-33.882;151.134;2022-10-15T13:00:39;17.60;99.90
16392;DHT22;8305;-33.882;151.134;2022-10-15T13:06:23;17.60;99.90
16392;DHT22;8305;-33.882;151.134;2022-10-15T13:11:53;17.60;99.90
16392;DHT22;8305;-33.882;151.134;2022-10-15T13:14:34;17.50;99.90
16392;DHT22;8305;-33.882;151.134;2022-10-15T13:17:15;17.50;99.90
16392;DHT22;8305;-33.882;151.134;2022-10-15T13:19:53;17.40;99.90
16392;DHT22;8305;-33.882;151.134;2022-10-15T13:22:28;17.40;99.90
16392;DHT22;8305;-33.882;151.134;2022-10-15T13:25:01;17.40;99.90
16392;DHT22;8305;-33.882;151.134;2022-10-15T13:27:33;17.40;99.90
16392;DHT22;8305;-33.882;151.134;2022-10-15T13:30:06;17.50;99.90
16392;DHT22;8305;-33.882;151.134;2022-10-15T13:32:39;17.40;99.90
16392;DHT22;8305;-33.882;151.134;2022-10-15T13:35:17;17.50;99.90
16392;DHT22;8305;-33.882;151.134;2022-10-15T13:37:48;17.50;99.90
16392;DHT22;8305;-33.882;151.134;2022-10-15T13:40:22;17.50;99.90
16392;DHT22;8305;-33.882;151.134;2022-10-15T13:43:01;17.50;99.90
16392;DHT22;8305;-33.882;151.134;2022-10-15T13:45:33;17.50;99.90
16392;DHT22;8305;-33.882;151.134;2022-10-15T13:48:11;17.50;99.90
16392;DHT22;8305;-33.882;151.134;2022-10-15T13:50:41;17.50;99.90
16392;DHT22;8305;-33.882;151.134;2022-10-15T13:53:16;17.50;99.90
16392;DHT22;8305;-33.882;151.134;2022-10-15T13:55:52;17.50;99.90
16392;DHT22;8305;-33.882;151.134;2022-10-15T13:58:25;17.60;99.90
16392;DHT22;8305;-33.882;151.134;2022-10-15T14:01:00;17.50;99.90
16392;DHT22;8305;-33.882;151.134;2022-10-15T14:03:33;17.50;99.90
16392;DHT22;8305;-33.882;151.134;2022-10-15T14:06:13;17.60;99.90
16392;DHT22;8305;-33.882;151.134;2022-10-15T14:08:47;17.50;99.90
16392;DHT22;8305;-33.882;151.134;2022-10-15T14:11:20;17.50;99.90
16392;DHT22;8305;-33.882;151.134;2022-10-15T14:13:52;17.60;99.90
16392;DHT22;8305;-33.882;151.134;2022-10-15T14:16:26;17.60;99.90
16392;DHT22;8305;-33.882;151.134;2022-10-15T14:19:07;17.60;99.90
16392;DHT22;8305;-33.882;151.134;2022-10-15T14:21:43;17.60;99.90
16392;DHT22;8305;-33.882;151.134;2022-10-15T14:24:16;17.60;99.90
16392;DHT22;8305;-33.882;151.134;2022-10-15T14:26:51;17.60;99.90
16392;DHT22;8305;-33.882;151.134;2022-10-15T14:29:25;17.60;99.90
16392;DHT22;8305;-33.882;151.134;2022-10-15T14:31:56;17.60;99.90
16392;DHT22;8305;-33.882;151.134;2022-10-15T14:34:35;17.60;99.90
16392;DHT22;8305;-33.882;151.134;2022-10-15T14:37:29;17.60;99.90
16392;DHT22;8305;-33.882;151.134;2022-10-15T14:40:16;17.60;99.90
16392;DHT22;8305;-33.882;151.134;2022-10-15T14:43:01;17.70;99.90
16392;DHT22;8305;-33.882;151.134;2022-10-15T14:45:36;17.60;99.90
16392;DHT22;8305;-33.882;151.134;2022-10-15T14:48:10;17.60;99.90
16392;DHT22;8305;-33.882;151.134;2022-10-15T14:50:43;17.70;99.90
16392;DHT22;8305;-33.882;151.134;2022-10-15T14:53:17;17.60;99.90
16392;DHT22;8305;-33.882;151.134;2022-10-15T14:55:50;17.60;99.90
16392;DHT22;8305;-33.882;151.134;2022-10-15T14:58:25;17.60;99.90
16392;DHT22;8305;-33.882;151.134;2022-10-15T15:00:58;17.60;99.90
16392;DHT22;8305;-33.882;151.134;2022-10-15T15:03:34;17.60;99.90
16392;DHT22;8305;-33.882;151.134;2022-10-15T15:06:07;17.60;99.90
16392;DHT22;8305;-33.882;151.134;2022-10-15T15:08:38;17.70;99.90
16392;DHT22;8305;-33.882;151.134;2022-10-15T15:11:13;17.60;99.90
16392;DHT22;8305;-33.882;151.134;2022-10-15T15:13:46;17.70;99.90
16392;DHT22;8305;-33.882;151.134;2022-10-15T15:16:18;17.60;99.90
16392;DHT22;8305;-33.882;151.134;2022-10-15T15:18:49;17.60;99.90
16392;DHT22;8305;-33.882;151.134;2022-10-15T15:21:21;17.70;99.90
16392;DHT22;8305;-33.882;151.134;2022-10-15T15:23:52;17.70;99.90
16392;DHT22;8305;-33.882;151.134;2022-10-15T15:26:23;17.70;99.90
16392;DHT22;8305;-33.882;151.134;2022-10-15T15:28:56;17.60;99.90
16392;DHT22;8305;-33.882;151.134;2022-10-15T15:31:26;17.60;99.90
16392;DHT22;8305;-33.882;151.134;2022-10-15T15:34:00;17.60;99.90
16392;DHT22;8305;-33.882;151.134;2022-10-15T15:36:31;17.60;99.90
16392;DHT22;8305;-33.882;151.134;2022-10-15T15:39:01;17.60;99.90
16392;DHT22;8305;-33.882;151.134;2022-10-15T15:41:32;17.60;99.90
16392;DHT22;8305;-33.882;151.134;2022-10-15T15:44:05;17.60;99.90
16392;DHT22;8305;-33.882;151.134;2022-10-15T15:46:36;17.70;99.90
16392;DHT22;8305;-33.882;151.134;2022-10-15T15:49:06;17.60;99.90
16392;DHT22;8305;-33.882;151.134;2022-10-15T15:51:37;17.60;99.90
16392;DHT22;8305;-33.882;151.134;2022-10-15T15:54:10;17.60;99.90
16392;DHT22;8305;-33.882;151.134;2022-10-15T15:56:41;17.60;99.90
16392;DHT22;8305;-33.882;151.134;2022-10-15T15:59:13;17.60;99.90
16392;DHT22;8305;-33.882;151.134;2022-10-15T16:01:46;17.60;99.90
16392;DHT22;8305;-33.882;151.134;2022-10-15T16:04:16;17.70;99.90
16392;DHT22;8305;-33.882;151.134;2022-10-15T16:06:47;17.60;99.90